sensor_id;sensor_type;location;lat;lon;timestamp;pressure;altitude;pressure_sealevel;temperature;humidity
29239;BME280;16267;48.194;11.546;2022-11-30T00:01:10;96131.75;;;4.65;91.18
29239;BME280;16267;48.194;11.546;2022-11-30T00:03:36;96134.41;;;4.65;92.41
29239;BME280;16267;48.194;11.546;2022-11-30T00:06:08;96133.28;;;4.66;92.78
29239;BME280;16267;48.194;11.546;2022-11-30T00:08:34;96126.41;;;4.65;92.37
29239;BME280;16267;48.194;11.546;2022-11-30T00:11:10;96127.03;;;4.55;89.94
29239;BME280;16267;48.194;11.546;2022-11-30T00:13:36;96130.81;;;4.54;91.33
29239;BME280;16267;48.194;11.546;2022-11-30T00:16:03;96133.13;;;4.56;91.94
29239;BME280;16267;48.194;11.546;2022-11-30T00:18:29;96141.44;;;4.54;91.03
29239;BME280;16267;48.194;11.546;2022-11-30T00:20:59;96137.97;;;4.50;90.62
29239;BME280;16267;48.194;11.546;2022-11-30T00:23:26;96142.88;;;4.48;91.47
29239;BME280;16267;48.194;11.546;2022-11-30T00:25:51;96137.22;;;4.50;92.20
29239;BME280;16267;48.194;11.546;2022-11-30T00:28:17;96140.16;;;4.44;90.85
29239;BME280;16267;48.194;11.546;2022-11-30T00:30:43;96148.19;;;4.48;91.88
29239;BME280;16267;48.194;11.546;2022-11-30T00:33:08;96137.09;;;4.42;91.37
29239;BME280;16267;48.194;11.546;2022-11-30T00:35:34;96139.75;;;4.42;91.93
29239;BME280;16267;48.194;11.546;2022-11-30T00:38:01;96132.16;;;4.41;91.54
29239;BME280;16267;48.194;11.546;2022-11-30T00:40:27;96131.78;;;4.42;92.75
29239;BME280;16267;48.194;11.546;2022-11-30T00:42:53;96139.66;;;4.35;90.68
29239;BME280;16267;48.194;11.546;2022-11-30T00:45:19;96149.50;;;4.35;92.16
29239;BME280;16267;48.194;11.546;2022-11-30T00:47:44;96146.84;;;4.35;92.16
29239;BME280;16267;48.194;11.546;2022-11-30T00:50:10;96141.53;;;4.35;92.54
29239;BME280;16267;48.194;11.546;2022-11-30T00:52:36;96138.09;;;4.34;91.98
29239;BME280;16267;48.194;11.546;2022-11-30T00:55:02;96150.28;;;4.35;92.30
29239;BME280;16267;48.194;11.546;2022-11-30T00:57:27;96149.91;;;4.37;92.70
29239;BME280;16267;48.194;11.546;2022-11-30T00:59:53;96153.31;;;4.37;92.88
29239;BME280;16267;48.194;11.546;2022-11-30T01:02:19;96152.63;;;4.40;93.24
29239;BME280;16267;48.194;11.546;2022-11-30T01:04:44;96156.81;;;4.41;93.28
29239;BME280;16267;48.194;11.546;2022-11-30T01:07:10;96149.63;;;4.42;92.92
29239;BME280;16267;48.194;11.546;2022-11-30T01:09:36;96157.59;;;4.42;92.67
29239;BME280;16267;48.194;11.546;2022-11-30T01:12:02;96158.31;;;4.39;91.54
29239;BME280;16267;48.194;11.546;2022-11-30T01:14:27;96156.75;;;4.38;91.62
29239;BME280;16267;48.194;11.546;2022-11-30T01:16:53;96159.41;;;4.38;92.56
29239;BME280;16267;48.194;11.546;2022-11-30T01:19:19;96153.31;;;4.37;92.74
29239;BME280;16267;48.194;11.546;2022-11-30T01:21:44;96153.69;;;4.36;92.05
29239;BME280;16267;48.194;11.546;2022-11-30T01:24:10;96158.66;;;4.37;92.84
29239;BME280;16267;48.194;11.546;2022-11-30T01:26:36;96160.97;;;4.39;92.05
29239;BME280;16267;48.194;11.546;2022-11-30T01:29:02;96163.63;;;4.39;92.16
29239;BME280;16267;48.194;11.546;2022-11-30T01:31:27;96158.59;;;4.34;91.24
29239;BME280;16267;48.194;11.546;2022-11-30T01:33:54;96161.59;;;4.32;91.54
29239;BME280;16267;48.194;11.546;2022-11-30T01:36:23;96165.38;;;4.31;91.62
29239;BME280;16267;48.194;11.546;2022-11-30T01:38:53;96164.25;;;4.32;91.87
29239;BME280;16267;48.194;11.546;2022-11-30T01:41:30;96168.41;;;4.30;91.19
29239;BME280;16267;48.194;11.546;2022-11-30T01:49:32;96161.53;;;4.29;92.39
29239;BME280;16267;48.194;11.546;2022-11-30T01:54:46;96163.84;;;4.30;92.46
29239;BME280;16267;48.194;11.546;2022-11-30T01:57:24;96158.13;;;4.28;90.77
29239;BME280;16267;48.194;11.546;2022-11-30T01:59:54;96157.31;;;4.24;91.02
29239;BME280;16267;48.194;11.546;2022-11-30T05:00:58;96208.22;;;3.87;88.82
29239;BME280;16267;48.194;11.546;2022-11-30T05:03:24;96201.03;;;3.88;88.72
29239;BME280;16267;48.194;11.546;2022-11-30T05:05:50;96199.84;;;3.85;88.72
29239;BME280;16267;48.194;11.546;2022-11-30T05:08:15;96215.00;;;3.85;88.92
29239;BME280;16267;48.194;11.546;2022-11-30T05:10:41;96217.66;;;3.85;88.35
29239;BME280;16267;48.194;11.546;2022-11-30T05:13:07;96216.13;;;3.84;89.16
29239;BME280;16267;48.194;11.546;2022-11-30T05:15:32;96222.22;;;3.84;89.28
29239;BME280;16267;48.194;11.546;2022-11-30T05:18:00;96219.22;;;3.86;89.55
29239;BME280;16267;48.194;11.546;2022-11-30T05:20:27;96214.66;;;3.86;89.36
29239;BME280;16267;48.194;11.546;2022-11-30T05:22:53;96209.38;;;3.86;89.56
29239;BME280;16267;48.194;11.546;2022-11-30T05:25:19;96209.69;;;3.85;88.73
29239;BME280;16267;48.194;11.546;2022-11-30T05:27:45;96208.94;;;3.84;89.21
29239;BME280;16267;48.194;11.546;2022-11-30T05:30:12;96214.66;;;3.86;89.40
29239;BME280;16267;48.194;11.546;2022-11-30T05:32:38;96220.00;;;3.86;89.50
29239;BME280;16267;48.194;11.546;2022-11-30T05:35:05;96219.63;;;3.88;89.65
29239;BME280;16267;48.194;11.546;2022-11-30T05:37:30;96221.94;;;3.89;89.73
29239;BME280;16267;48.194;11.546;2022-11-30T05:39:56;96229.13;;;3.89;89.33
29239;BME280;16267;48.194;11.546;2022-11-30T05:42:22;96235.22;;;3.89;89.46
29239;BME280;16267;48.194;11.546;2022-11-30T05:44:48;96232.56;;;3.89;89.50
29239;BME280;16267;48.194;11.546;2022-11-30T05:47:13;96233.75;;;3.92;89.69
29239;BME280;16267;48.194;11.546;2022-11-30T05:49:39;96226.91;;;3.91;89.08
29239;BME280;16267;48.194;11.546;2022-11-30T05:52:05;96225.03;;;3.91;89.37
29239;BME280;16267;48.194;11.546;2022-11-30T05:54:32;96220.47;;;3.92;89.23
29239;BME280;16267;48.194;11.546;2022-11-30T05:56:58;96229.19;;;3.92;89.28
29239;BME280;16267;48.194;11.546;2022-11-30T05:59:23;96232.28;;;3.94;89.24
29239;BME280;16267;48.194;11.546;2022-11-30T06:01:52;96234.94;;;3.94;89.33
29239;BME280;16267;48.194;11.546;2022-11-30T06:04:18;96230.72;;;3.93;89.39
29239;BME280;16267;48.194;11.546;2022-11-30T06:06:44;96236.84;;;3.94;89.13
29239;BME280;16267;48.194;11.546;2022-11-30T06:09:10;96234.94;;;3.94;89.11
29239;BME280;16267;48.194;11.546;2022-11-30T06:11:36;96229.97;;;3.93;88.89
29239;BME280;16267;48.194;11.546;2022-11-30T06:14:02;96232.28;;;3.94;89.01
29239;BME280;16267;48.194;11.546;2022-11-30T06:16:28;96226.97;;;3.94;89.06
29239;BME280;16267;48.194;11.546;2022-11-30T06:18:53;96226.22;;;3.94;88.86
29239;BME280;16267;48.194;11.546;2022-11-30T06:21:19;96226.97;;;3.94;89.10
29239;BME280;16267;48.194;11.546;2022-11-30T06:23:45;96228.06;;;3.93;88.61
29239;BME280;16267;48.194;11.546;2022-11-30T06:26:11;96228.06;;;3.93;88.90
29239;BME280;16267;48.194;11.546;2022-11-30T06:28:38;96232.28;;;3.94;88.98
29239;BME280;16267;48.194;11.546;2022-11-30T06:31:06;96233.81;;;3.95;88.73
29239;BME280;16267;48.194;11.546;2022-11-30T06:33:33;96231.53;;;3.94;88.06
29239;BME280;16267;48.194;11.546;2022-11-30T06:35:59;96235.28;;;3.93;88.38
29239;BME280;16267;48.194;11.546;2022-11-30T06:38:25;96236.41;;;3.92;88.53
29239;BME280;16267;48.194;11.546;2022-11-30T06:40:52;96233.75;;;3.92;88.10
29239;BME280;16267;48.194;11.546;2022-11-30T06:43:18;96232.56;;;3.89;87.72
29239;BME280;16267;48.194;11.546;2022-11-30T06:45:45;96226.81;;;3.87;87.84
29239;BME280;16267;48.194;11.546;2022-11-30T06:48:12;96220.75;;;3.87;88.20
29239;BME280;16267;48.194;11.546;2022-11-30T06:50:39;96223.47;;;3.90;88.41
29239;BME280;16267;48.194;11.546;2022-11-30T06:53:05;96229.91;;;3.89;87.52
29239;BME280;16267;48.194;11.546;2022-11-30T06:55:31;96230.34;;;3.91;88.44
29239;BME280;16267;48.194;11.546;2022-11-30T06:58:09;96233.38;;;3.93;88.44
29239;BME280;16267;48.194;11.546;2022-11-30T07:00:37;96241.78;;;3.95;88.53
29239;BME280;16267;48.194;11.546;2022-11-30T07:03:04;96248.28;;;3.98;88.68
29239;BME280;16267;48.194;11.546;2022-11-30T07:05:32;96238.78;;;3.97;88.48
29239;BME280;16267;48.194;11.546;2022-11-30T07:07:59;96244.50;;;3.99;88.24
29239;BME280;16267;48.194;11.546;2022-11-30T07:10:25;96253.25;;;3.99;87.97
29239;BME280;16267;48.194;11.546;2022-11-30T07:12:51;96246.03;;;4.00;88.10
29239;BME280;16267;48.194;11.546;2022-11-30T07:15:17;96250.22;;;4.01;88.93
29239;BME280;16267;48.194;11.546;2022-11-30T07:17:42;96248.34;;;4.01;88.67
29239;BME280;16267;48.194;11.546;2022-11-30T07:20:09;96256.41;;;4.05;88.82
29239;BME280;16267;48.194;11.546;2022-11-30T07:22:34;96254.84;;;4.04;88.32
29239;BME280;16267;48.194;11.546;2022-11-30T07:25:00;96254.50;;;4.06;88.40
29239;BME280;16267;48.194;11.546;2022-11-30T07:27:45;96254.50;;;4.06;87.96
29239;BME280;16267;48.194;11.546;2022-11-30T07:30:11;96259.44;;;4.07;88.06
29239;BME280;16267;48.194;11.546;2022-11-30T07:32:37;96259.06;;;4.05;87.64
29239;BME280;16267;48.194;11.546;2022-11-30T07:35:03;96255.25;;;4.06;87.87
29239;BME280;16267;48.194;11.546;2022-11-30T07:37:28;96254.13;;;4.07;87.82
29239;BME280;16267;48.194;11.546;2022-11-30T07:39:54;96257.59;;;4.08;87.75
29239;BME280;16267;48.194;11.546;2022-11-30T07:42:20;96248.50;;;4.09;87.88
29239;BME280;16267;48.194;11.546;2022-11-30T07:44:47;96257.66;;;4.11;88.12
29239;BME280;16267;48.194;11.546;2022-11-30T07:47:15;96264.84;;;4.11;87.32
29239;BME280;16267;48.194;11.546;2022-11-30T07:49:41;96260.31;;;4.11;87.55
29239;BME280;16267;48.194;11.546;2022-11-30T07:52:06;96254.97;;;4.11;88.21
29239;BME280;16267;48.194;11.546;2022-11-30T07:54:33;96256.88;;;4.11;87.58
29239;BME280;16267;48.194;11.546;2022-11-30T07:56:59;96256.88;;;4.11;87.81
29239;BME280;16267;48.194;11.546;2022-11-30T07:59:25;96245.88;;;4.12;88.29
29239;BME280;16267;48.194;11.546;2022-11-30T08:01:51;96250.88;;;4.14;87.84
29239;BME280;16267;48.194;11.546;2022-11-30T08:04:16;96255.81;;;4.15;87.69
29239;BME280;16267;48.194;11.546;2022-11-30T08:06:42;96266.44;;;4.15;87.35
29239;BME280;16267;48.194;11.546;2022-11-30T08:09:10;96262.69;;;4.16;87.24
29239;BME280;16267;48.194;11.546;2022-11-30T08:11:36;96261.13;;;4.15;85.95
29239;BME280;16267;48.194;11.546;2022-11-30T08:14:03;96258.88;;;4.17;87.12
29239;BME280;16267;48.194;11.546;2022-11-30T08:16:33;96263.06;;;4.18;87.07
29239;BME280;16267;48.194;11.546;2022-11-30T08:18:59;96268.03;;;4.20;87.11
29239;BME280;16267;48.194;11.546;2022-11-30T08:21:25;96266.91;;;4.21;87.21
29239;BME280;16267;48.194;11.546;2022-11-30T08:23:53;96265.44;;;4.23;87.38
29239;BME280;16267;48.194;11.546;2022-11-30T08:26:32;96271.56;;;4.24;87.12
29239;BME280;16267;48.194;11.546;2022-11-30T08:28:59;96262.09;;;4.27;87.15
29239;BME280;16267;48.194;11.546;2022-11-30T08:31:30;96269.72;;;4.28;87.25
29239;BME280;16267;48.194;11.546;2022-11-30T08:33:59;96266.31;;;4.28;86.37
29239;BME280;16267;48.194;11.546;2022-11-30T08:36:27;96269.72;;;4.28;86.86
29239;BME280;16267;48.194;11.546;2022-11-30T08:38:53;96262.50;;;4.29;86.93
29239;BME280;16267;48.194;11.546;2022-11-30T08:41:20;96278.88;;;4.31;86.93
29239;BME280;16267;48.194;11.546;2022-11-30T08:43:47;96271.34;;;4.33;87.15
29239;BME280;16267;48.194;11.546;2022-11-30T08:46:16;96280.06;;;4.33;86.17
29239;BME280;16267;48.194;11.546;2022-11-30T08:48:42;96274.38;;;4.35;86.56
29239;BME280;16267;48.194;11.546;2022-11-30T08:51:12;96274.38;;;4.35;85.85
29239;BME280;16267;48.194;11.546;2022-11-30T08:53:38;96279.00;;;4.38;86.05
29239;BME280;16267;48.194;11.546;2022-11-30T08:56:09;96278.44;;;4.29;85.69
29239;BME280;16267;48.194;11.546;2022-11-30T08:58:37;96286.09;;;4.30;87.09
29239;BME280;16267;48.194;11.546;2022-11-30T09:01:20;96283.06;;;4.32;86.51
29239;BME280;16267;48.194;11.546;2022-11-30T09:03:48;96289.56;;;4.34;86.82
29239;BME280;16267;48.194;11.546;2022-11-30T09:06:40;96284.69;;;4.36;86.98
29239;BME280;16267;48.194;11.546;2022-11-30T09:09:06;96291.59;;;4.41;87.20
29239;BME280;16267;48.194;11.546;2022-11-30T09:11:32;96290.13;;;4.43;87.48
29239;BME280;16267;48.194;11.546;2022-11-30T09:14:01;96295.44;;;4.43;87.00
29239;BME280;16267;48.194;11.546;2022-11-30T09:16:28;96296.97;;;4.44;86.08
29239;BME280;16267;48.194;11.546;2022-11-30T09:18:54;96295.44;;;4.43;85.03
29239;BME280;16267;48.194;11.546;2022-11-30T09:21:22;96298.44;;;4.42;85.21
29239;BME280;16267;48.194;11.546;2022-11-30T09:23:49;96290.47;;;4.42;85.12
29239;BME280;16267;48.194;11.546;2022-11-30T09:26:19;96292.00;;;4.43;85.13
29239;BME280;16267;48.194;11.546;2022-11-30T09:28:46;96292.44;;;4.45;85.12
29239;BME280;16267;48.194;11.546;2022-11-30T09:31:16;96290.97;;;4.47;85.32
29239;BME280;16267;48.194;11.546;2022-11-30T09:33:44;96292.47;;;4.48;85.12
29239;BME280;16267;48.194;11.546;2022-11-30T09:36:18;96283.03;;;4.51;84.78
29239;BME280;16267;48.194;11.546;2022-11-30T09:38:45;96280.03;;;4.53;84.90
29239;BME280;16267;48.194;11.546;2022-11-30T09:49:42;96282.41;;;4.58;84.38
29239;BME280;16267;48.194;11.546;2022-11-30T09:52:25;96285.06;;;4.58;83.66
29239;BME280;16267;48.194;11.546;2022-11-30T09:54:55;96280.94;;;4.60;83.63
29239;BME280;16267;48.194;11.546;2022-11-30T10:02:40;96282.13;;;4.63;83.33
29239;BME280;16267;48.194;11.546;2022-11-30T10:05:22;96280.63;;;4.65;83.52
29239;BME280;16267;48.194;11.546;2022-11-30T10:10:50;96279.94;;;4.68;83.56
29239;BME280;16267;48.194;11.546;2022-11-30T10:25:41;96285.31;;;4.72;80.83
29239;BME280;16267;48.194;11.546;2022-11-30T10:29:11;96284.19;;;4.73;80.93
29239;BME280;16267;48.194;11.546;2022-11-30T10:31:13;96283.47;;;4.76;80.81
29239;BME280;16267;48.194;11.546;2022-11-30T10:33:50;96282.00;;;4.79;80.75
29239;BME280;16267;48.194;11.546;2022-11-30T10:36:35;96278.63;;;4.82;81.15
29239;BME280;16267;48.194;11.546;2022-11-30T10:41:54;96267.28;;;4.85;80.47
29239;BME280;16267;48.194;11.546;2022-11-30T10:44:32;96272.25;;;4.86;79.54
29239;BME280;16267;48.194;11.546;2022-11-30T10:47:15;96275.66;;;4.87;78.80
29239;BME280;16267;48.194;11.546;2022-11-30T10:49:48;96269.59;;;4.86;78.31
29239;BME280;16267;48.194;11.546;2022-11-30T10:52:31;96266.97;;;4.90;78.17
29239;BME280;16267;48.194;11.546;2022-11-30T10:54:59;96262.44;;;4.90;77.62
29239;BME280;16267;48.194;11.546;2022-11-30T10:57:29;96263.56;;;4.89;77.10
29239;BME280;16267;48.194;11.546;2022-11-30T10:59:58;96259.06;;;4.94;77.05
29239;BME280;16267;48.194;11.546;2022-11-30T11:05:25;96252.31;;;5.00;77.09
29239;BME280;16267;48.194;11.546;2022-11-30T11:13:05;96250.94;;;5.09;77.26
29239;BME280;16267;48.194;11.546;2022-11-30T11:15:33;96252.50;;;5.10;76.39
29239;BME280;16267;48.194;11.546;2022-11-30T11:18:23;96247.88;;;5.07;74.97
29239;BME280;16267;48.194;11.546;2022-11-30T11:21:21;96251.66;;;5.06;75.13
29239;BME280;16267;48.194;11.546;2022-11-30T11:23:53;96250.13;;;5.05;74.96
29239;BME280;16267;48.194;11.546;2022-11-30T11:26:26;96250.13;;;5.05;75.24
29239;BME280;16267;48.194;11.546;2022-11-30T11:28:55;96250.88;;;5.06;75.14
29239;BME280;16267;48.194;11.546;2022-11-30T11:31:44;96247.47;;;5.05;74.96
29239;BME280;16267;48.194;11.546;2022-11-30T11:34:32;96254.72;;;5.08;75.84
29239;BME280;16267;48.194;11.546;2022-11-30T11:37:18;96245.28;;;5.11;75.86
29239;BME280;16267;48.194;11.546;2022-11-30T11:40:02;96252.13;;;5.12;75.71
29239;BME280;16267;48.194;11.546;2022-11-30T11:42:34;96238.47;;;5.13;75.91
29239;BME280;16267;48.194;11.546;2022-11-30T11:45:02;96247.97;;;5.14;75.63
29239;BME280;16267;48.194;11.546;2022-11-30T11:47:39;96249.53;;;5.16;76.38
29239;BME280;16267;48.194;11.546;2022-11-30T11:52:37;96242.31;;;5.16;75.99
29239;BME280;16267;48.194;11.546;2022-11-30T11:55:15;96245.72;;;5.17;75.95
29239;BME280;16267;48.194;11.546;2022-11-30T11:57:53;96240.41;;;5.17;75.53
29239;BME280;16267;48.194;11.546;2022-11-30T12:00:22;96247.25;;;5.18;75.31
29239;BME280;16267;48.194;11.546;2022-11-30T12:03:18;96240.84;;;5.19;75.57
29239;BME280;16267;48.194;11.546;2022-11-30T12:06:02;96239.69;;;5.20;75.71
29239;BME280;16267;48.194;11.546;2022-11-30T12:08:55;96238.94;;;5.19;75.40
29239;BME280;16267;48.194;11.546;2022-11-30T12:11:24;96239.69;;;5.20;74.79
29239;BME280;16267;48.194;11.546;2022-11-30T12:13:52;96242.00;;;5.21;75.17
29239;BME280;16267;48.194;11.546;2022-11-30T12:16:44;96235.13;;;5.20;74.83
29239;BME280;16267;48.194;11.546;2022-11-30T12:22:44;96229.06;;;5.20;74.59
29239;BME280;16267;48.194;11.546;2022-11-30T12:25:32;96242.34;;;5.20;75.07
29239;BME280;16267;48.194;11.546;2022-11-30T12:28:24;96238.50;;;5.17;74.34
29239;BME280;16267;48.194;11.546;2022-11-30T12:31:16;96237.00;;;5.16;74.30
29239;BME280;16267;48.194;11.546;2022-11-30T12:34:29;96239.22;;;5.14;74.36
29239;BME280;16267;48.194;11.546;2022-11-30T12:37:12;96240.75;;;5.15;74.25
29239;BME280;16267;48.194;11.546;2022-11-30T12:43:02;96234.31;;;5.16;74.29
29239;BME280;16267;48.194;11.546;2022-11-30T12:45:43;96232.72;;;5.11;73.73
29239;BME280;16267;48.194;11.546;2022-11-30T12:51:19;96239.13;;;5.07;74.57
29239;BME280;16267;48.194;11.546;2022-11-30T12:56:36;96234.59;;;5.07;74.16
29239;BME280;16267;48.194;11.546;2022-11-30T13:05:13;96239.91;;;5.07;74.75
29239;BME280;16267;48.194;11.546;2022-11-30T13:08:04;96240.66;;;5.08;75.40
29239;BME280;16267;48.194;11.546;2022-11-30T13:10:53;96231.56;;;5.09;75.77
29239;BME280;16267;48.194;11.546;2022-11-30T13:13:27;96228.88;;;5.09;75.32
29239;BME280;16267;48.194;11.546;2022-11-30T13:15:54;96233.09;;;5.10;75.54
29239;BME280;16267;48.194;11.546;2022-11-30T13:18:22;96229.66;;;5.09;75.46
29239;BME280;16267;48.194;11.546;2022-11-30T13:21:07;96230.38;;;5.06;74.51
29239;BME280;16267;48.194;11.546;2022-11-30T13:32:37;96236.88;;;5.09;74.70
29239;BME280;16267;48.194;11.546;2022-11-30T13:38:19;96234.63;;;5.11;74.97
29239;BME280;16267;48.194;11.546;2022-11-30T13:41:03;96233.88;;;5.10;74.65
29239;BME280;16267;48.194;11.546;2022-11-30T13:43:43;96238.06;;;5.11;74.86
29239;BME280;16267;48.194;11.546;2022-11-30T13:48:40;96235.38;;;5.11;74.68
29239;BME280;16267;48.194;11.546;2022-11-30T13:51:06;96235.38;;;5.11;74.80
29239;BME280;16267;48.194;11.546;2022-11-30T13:53:37;96242.63;;;5.11;74.08
29239;BME280;16267;48.194;11.546;2022-11-30T13:56:30;96244.09;;;5.08;74.94
29239;BME280;16267;48.194;11.546;2022-11-30T14:02:47;96246.00;;;5.08;75.07
29239;BME280;16267;48.194;11.546;2022-11-30T14:04:45;96246.75;;;5.08;75.23
29239;BME280;16267;48.194;11.546;2022-11-30T14:10:42;96249.75;;;5.07;75.66
29239;BME280;16267;48.194;11.546;2022-11-30T14:18:30;96239.50;;;5.05;75.25
29239;BME280;16267;48.194;11.546;2022-11-30T14:26:42;96253.03;;;4.97;75.97
29239;BME280;16267;48.194;11.546;2022-11-30T14:29:30;96254.16;;;4.96;76.27
29239;BME280;16267;48.194;11.546;2022-11-30T14:32:36;96254.09;;;4.92;76.17
29239;BME280;16267;48.194;11.546;2022-11-30T14:35:11;96255.22;;;4.91;76.85
29239;BME280;16267;48.194;11.546;2022-11-30T14:37:58;96258.94;;;4.86;76.96
29239;BME280;16267;48.194;11.546;2022-11-30T14:40:27;96257.44;;;4.85;77.29
29239;BME280;16267;48.194;11.546;2022-11-30T14:43:00;96258.91;;;4.83;76.77
29239;BME280;16267;48.194;11.546;2022-11-30T14:45:32;96264.94;;;4.80;77.30
29239;BME280;16267;48.194;11.546;2022-11-30T14:48:12;96256.88;;;4.76;77.38
29239;BME280;16267;48.194;11.546;2022-11-30T14:51:00;96262.91;;;4.73;77.65
29239;BME280;16267;48.194;11.546;2022-11-30T14:53:57;96261.31;;;4.68;77.78
29239;BME280;16267;48.194;11.546;2022-11-30T14:56:32;96265.47;;;4.66;77.27
29239;BME280;16267;48.194;11.546;2022-11-30T14:59:45;96264.28;;;4.63;77.33
29239;BME280;16267;48.194;11.546;2022-11-30T15:02:35;96267.66;;;4.60;77.23
29239;BME280;16267;48.194;11.546;2022-11-30T15:05:06;96268.00;;;4.59;77.84
29239;BME280;16267;48.194;11.546;2022-11-30T15:07:33;96265.69;;;4.57;77.78
29239;BME280;16267;48.194;11.546;2022-11-30T15:10:10;96275.19;;;4.58;78.14
29239;BME280;16267;48.194;11.546;2022-11-30T15:12:38;96270.59;;;4.55;77.88
29239;BME280;16267;48.194;11.546;2022-11-30T15:15:25;96262.63;;;4.55;77.95
29239;BME280;16267;48.194;11.546;2022-11-30T15:18:15;96267.84;;;4.52;78.29
29239;BME280;16267;48.194;11.546;2022-11-30T15:21:01;96268.97;;;4.51;78.61
29239;BME280;16267;48.194;11.546;2022-11-30T15:23:28;96270.88;;;4.50;78.48
29239;BME280;16267;48.194;11.546;2022-11-30T15:26:28;96269.34;;;4.49;78.06
29239;BME280;16267;48.194;11.546;2022-11-30T15:29:14;96269.25;;;4.45;78.34
29239;BME280;16267;48.194;11.546;2022-11-30T15:31:44;96275.72;;;4.44;78.17
29239;BME280;16267;48.194;11.546;2022-11-30T15:34:47;96276.06;;;4.43;78.59
29239;BME280;16267;48.194;11.546;2022-11-30T15:37:14;96273.41;;;4.43;78.58
29239;BME280;16267;48.194;11.546;2022-11-30T15:39:48;96279.06;;;4.41;78.02
29239;BME280;16267;48.194;11.546;2022-11-30T15:42:42;96279.41;;;4.40;78.56
29239;BME280;16267;48.194;11.546;2022-11-30T15:45:49;96283.53;;;4.37;78.55
29239;BME280;16267;48.194;11.546;2022-11-30T15:48:47;96280.50;;;4.35;78.65
29239;BME280;16267;48.194;11.546;2022-11-30T15:51:22;96283.50;;;4.34;78.66
29239;BME280;16267;48.194;11.546;2022-11-30T15:53:50;96273.63;;;4.34;78.95
29239;BME280;16267;48.194;11.546;2022-11-30T15:56:27;96282.72;;;4.33;79.13
29239;BME280;16267;48.194;11.546;2022-11-30T16:02:00;96287.56;;;4.28;78.09
29239;BME280;16267;48.194;11.546;2022-11-30T16:07:51;96281.81;;;4.25;78.83
29239;BME280;16267;48.194;11.546;2022-11-30T16:10:40;96287.91;;;4.26;78.30
29239;BME280;16267;48.194;11.546;2022-11-30T16:13:06;96286.38;;;4.25;78.27
29239;BME280;16267;48.194;11.546;2022-11-30T16:15:34;96284.84;;;4.24;78.38
29239;BME280;16267;48.194;11.546;2022-11-30T16:18:15;96292.38;;;4.22;77.94
29239;BME280;16267;48.194;11.546;2022-11-30T16:20:47;96300.00;;;4.23;78.46
29239;BME280;16267;48.194;11.546;2022-11-30T16:23:20;96293.16;;;4.22;78.51
29239;BME280;16267;48.194;11.546;2022-11-30T16:25:48;96297.28;;;4.20;77.94
29239;BME280;16267;48.194;11.546;2022-11-30T16:28:17;96290.06;;;4.20;78.07
29239;BME280;16267;48.194;11.546;2022-11-30T16:30:44;96290.00;;;4.17;77.16
29239;BME280;16267;48.194;11.546;2022-11-30T16:33:18;96297.91;;;4.13;78.07
29239;BME280;16267;48.194;11.546;2022-11-30T16:38:21;96296.63;;;4.07;77.97
29239;BME280;16267;48.194;11.546;2022-11-30T16:40:47;96301.94;;;4.07;78.78
29239;BME280;16267;48.194;11.546;2022-11-30T16:43:13;96299.66;;;4.06;78.63
29239;BME280;16267;48.194;11.546;2022-11-30T16:45:40;96297.75;;;4.06;79.04
29239;BME280;16267;48.194;11.546;2022-11-30T16:48:06;96300.41;;;4.06;78.67
29239;BME280;16267;48.194;11.546;2022-11-30T16:50:33;96293.22;;;4.07;78.80
29239;BME280;16267;48.194;11.546;2022-11-30T16:53:04;96297.75;;;4.06;79.31
29239;BME280;16267;48.194;11.546;2022-11-30T16:55:33;96304.97;;;4.06;79.05
29239;BME280;16267;48.194;11.546;2022-11-30T16:58:02;96304.97;;;4.06;78.88
29239;BME280;16267;48.194;11.546;2022-11-30T17:00:28;96304.19;;;4.05;78.60
29239;BME280;16267;48.194;11.546;2022-11-30T17:05:41;96300.34;;;4.02;78.89
29239;BME280;16267;48.194;11.546;2022-11-30T17:08:09;96300.69;;;4.01;78.79
29239;BME280;16267;48.194;11.546;2022-11-30T17:10:36;96296.84;;;3.98;78.48
29239;BME280;16267;48.194;11.546;2022-11-30T17:13:12;96305.19;;;3.97;77.79
29239;BME280;16267;48.194;11.546;2022-11-30T17:15:39;96300.19;;;3.95;77.59
29239;BME280;16267;48.194;11.546;2022-11-30T17:18:04;96301.66;;;3.93;77.31
29239;BME280;16267;48.194;11.546;2022-11-30T17:20:30;96312.28;;;3.93;77.67
29239;BME280;16267;48.194;11.546;2022-11-30T17:22:56;96316.06;;;3.92;78.02
29239;BME280;16267;48.194;11.546;2022-11-30T17:25:23;96315.72;;;3.93;78.29
29239;BME280;16267;48.194;11.546;2022-11-30T17:27:49;96310.41;;;3.93;78.08
29239;BME280;16267;48.194;11.546;2022-11-30T17:30:19;96314.19;;;3.92;78.19
29239;BME280;16267;48.194;11.546;2022-11-30T17:32:45;96312.28;;;3.93;78.75
29239;BME280;16267;48.194;11.546;2022-11-30T17:35:11;96314.94;;;3.93;78.69
29239;BME280;16267;48.194;11.546;2022-11-30T17:37:36;96317.19;;;3.91;78.73
29239;BME280;16267;48.194;11.546;2022-11-30T17:40:03;96315.22;;;3.88;78.14
29239;BME280;16267;48.194;11.546;2022-11-30T17:42:30;96319.75;;;3.87;78.20
29239;BME280;16267;48.194;11.546;2022-11-30T17:44:55;96319.75;;;3.87;78.67
29239;BME280;16267;48.194;11.546;2022-11-30T17:47:21;96320.88;;;3.86;78.82
29239;BME280;16267;48.194;11.546;2022-11-30T17:49:48;96320.13;;;3.86;78.53
29239;BME280;16267;48.194;11.546;2022-11-30T17:52:14;96324.25;;;3.83;77.76
29239;BME280;16267;48.194;11.546;2022-11-30T17:54:40;96325.78;;;3.84;78.01
29239;BME280;16267;48.194;11.546;2022-11-30T17:57:06;96329.88;;;3.82;77.81
29239;BME280;16267;48.194;11.546;2022-11-30T17:59:31;96329.13;;;3.81;77.85
29239;BME280;16267;48.194;11.546;2022-11-30T18:01:57;96326.03;;;3.79;77.69
29239;BME280;16267;48.194;11.546;2022-11-30T18:04:23;96317.31;;;3.78;77.67
29239;BME280;16267;48.194;11.546;2022-11-30T18:06:49;96321.84;;;3.78;77.78
29239;BME280;16267;48.194;11.546;2022-11-30T18:09:14;96318.75;;;3.76;77.52
29239;BME280;16267;48.194;11.546;2022-11-30T18:11:41;96316.47;;;3.74;78.08
29239;BME280;16267;48.194;11.546;2022-11-30T18:14:06;96323.31;;;3.75;78.75